sensor_id;sensor_type;location;lat;lon;timestamp;P1;P2;P0
76049;PMS7003;64967;50.234;19.224;2023-12-20T00:01:36;11.75;8.25;7.00
76049;PMS7003;64967;50.234;19.224;2023-12-20T00:04:02;9.00;8.00;6.00
76049;PMS7003;64967;50.234;19.224;2023-12-20T00:06:30;7.25;7.25;5.00
76049;PMS7003;64967;50.234;19.224;2023-12-20T00:08:57;12.50;8.50;7.00
76049;PMS7003;64967;50.234;19.224;2023-12-20T00:11:26;9.75;8.50;7.50
76049;PMS7003;64967;50.234;19.224;2023-12-20T00:13:53;9.25;8.50;7.00
76049;PMS7003;64967;50.234;19.224;2023-12-20T00:16:19;7.50;4.50;3.25
76049;PMS7003;64967;50.234;19.224;2023-12-20T00:18:46;12.75;9.00;7.00
76049;PMS7003;64967;50.234;19.224;2023-12-20T00:21:13;11.25;10.00;7.50
76049;PMS7003;64967;50.234;19.224;2023-12-20T00:23:39;9.75;7.75;6.50
76049;PMS7003;64967;50.234;19.224;2023-12-20T00:26:06;10.25;9.00;6.75
76049;PMS7003;64967;50.234;19.224;2023-12-20T00:28:32;9.00;8.75;6.00
76049;PMS7003;64967;50.234;19.224;2023-12-20T00:30:59;5.50;5.50;5.00
76049;PMS7003;64967;50.234;19.224;2023-12-20T00:33:26;14.00;8.50;7.00
76049;PMS7003;64967;50.234;19.224;2023-12-20T00:35:52;8.75;7.75;6.50
76049;PMS7003;64967;50.234;19.224;2023-12-20T00:38:19;7.75;7.75;7.00
76049;PMS7003;64967;50.234;19.224;2023-12-20T00:40:46;7.75;7.75;6.50
76049;PMS7003;64967;50.234;19.224;2023-12-20T00:43:12;7.75;7.75;7.00
76049;PMS7003;64967;50.234;19.224;2023-12-20T00:45:39;9.50;8.75;7.00
76049;PMS7003;64967;50.234;19.224;2023-12-20T00:48:06;8.50;8.50;7.25
76049;PMS7003;64967;50.234;19.224;2023-12-20T00:50:33;9.25;7.75;5.00
76049;PMS7003;64967;50.234;19.224;2023-12-20T00:52:59;9.50;7.75;6.00
76049;PMS7003;64967;50.234;19.224;2023-12-20T00:55:26;4.50;3.00;3.00
76049;PMS7003;64967;50.234;19.224;2023-12-20T00:57:52;8.00;8.00;7.00
76049;PMS7003;64967;50.234;19.224;2023-12-20T01:00:20;9.00;8.00;7.00
76049;PMS7003;64967;50.234;19.224;2023-12-20T01:02:47;8.50;8.25;7.50
76049;PMS7003;64967;50.234;19.224;2023-12-20T01:05:15;10.25;9.00;7.00
76049;PMS7003;64967;50.234;19.224;2023-12-20T01:07:42;8.50;7.00;4.00
76049;PMS7003;64967;50.234;19.224;2023-12-20T01:10:09;7.25;6.25;6.00
76049;PMS7003;64967;50.234;19.224;2023-12-20T01:12:36;10.00;8.50;6.25
76049;PMS7003;64967;50.234;19.224;2023-12-20T01:15:03;7.00;6.25;5.00
76049;PMS7003;64967;50.234;19.224;2023-12-20T01:17:29;9.50;8.50;5.75
76049;PMS7003;64967;50.234;19.224;2023-12-20T01:19:56;11.75;9.50;5.50
76049;PMS7003;64967;50.234;19.224;2023-12-20T01:22:23;8.00;7.00;5.50
76049;PMS7003;64967;50.234;19.224;2023-12-20T01:24:50;7.00;5.50;4.25
76049;PMS7003;64967;50.234;19.224;2023-12-20T01:27:16;10.00;6.50;5.00
76049;PMS7003;64967;50.234;19.224;2023-12-20T01:29:43;8.75;7.75;6.00
76049;PMS7003;64967;50.234;19.224;2023-12-20T01:32:09;7.25;7.25;7.00
76049;PMS7003;64967;50.234;19.224;2023-12-20T01:34:36;9.25;8.75;7.00
76049;PMS7003;64967;50.234;19.224;2023-12-20T01:37:03;9.00;7.00;6.00
76049;PMS7003;64967;50.234;19.224;2023-12-20T01:39:30;8.25;8.25;5.50
76049;PMS7003;64967;50.234;19.224;2023-12-20T01:41:57;9.00;8.50;7.00
76049;PMS7003;64967;50.234;19.224;2023-12-20T01:44:33;9.25;7.50;6.50
76049;PMS7003;64967;50.234;19.224;2023-12-20T01:47:00;6.75;6.00;4.00
76049;PMS7003;64967;50.234;19.224;2023-12-20T01:49:27;4.50;4.00;4.00
76049;PMS7003;64967;50.234;19.224;2023-12-20T01:51:54;6.00;4.75;4.00
76049;PMS7003;64967;50.234;19.224;2023-12-20T01:54:21;9.50;8.00;7.00
76049;PMS7003;64967;50.234;19.224;2023-12-20T01:56:48;11.50;9.25;7.50
76049;PMS7003;64967;50.234;19.224;2023-12-20T01:59:17;7.75;7.25;6.25
76049;PMS7003;64967;50.234;19.224;2023-12-20T02:01:46;10.00;9.75;8.00
76049;PMS7003;64967;50.234;19.224;2023-12-20T02:04:13;9.50;8.50;7.00
76049;PMS7003;64967;50.234;19.224;2023-12-20T02:06:41;9.00;6.75;4.75
76049;PMS7003;64967;50.234;19.224;2023-12-20T02:09:09;8.25;7.75;6.00
76049;PMS7003;64967;50.234;19.224;2023-12-20T02:11:37;9.00;8.00;7.00
76049;PMS7003;64967;50.234;19.224;2023-12-20T02:14:04;7.75;7.75;6.25
76049;PMS7003;64967;50.234;19.224;2023-12-20T02:16:31;10.00;7.00;4.75
76049;PMS7003;64967;50.234;19.224;2023-12-20T02:18:58;10.50;9.00;7.50
76049;PMS7003;64967;50.234;19.224;2023-12-20T02:21:33;7.50;7.50;6.00
76049;PMS7003;64967;50.234;19.224;2023-12-20T02:24:03;7.00;6.50;5.00
76049;PMS7003;64967;50.234;19.224;2023-12-20T02:26:31;6.25;6.25;6.00
76049;PMS7003;64967;50.234;19.224;2023-12-20T02:28:59;8.75;7.75;6.00
76049;PMS7003;64967;50.234;19.224;2023-12-20T02:31:27;7.75;6.25;4.00
76049;PMS7003;64967;50.234;19.224;2023-12-20T02:33:54;9.75;8.00;7.00
76049;PMS7003;64967;50.234;19.224;2023-12-20T02:36:20;9.75;8.25;6.75
76049;PMS7003;64967;50.234;19.224;2023-12-20T02:38:47;6.25;6.25;4.25
76049;PMS7003;64967;50.234;19.224;2023-12-20T02:41:14;8.00;7.00;5.75
76049;PMS7003;64967;50.234;19.224;2023-12-20T02:43:43;9.00;8.00;7.00
76049;PMS7003;64967;50.234;19.224;2023-12-20T02:46:10;10.00;9.75;8.00
76049;PMS7003;64967;50.234;19.224;2023-12-20T02:48:38;9.00;9.00;8.00
76049;PMS7003;64967;50.234;19.224;2023-12-20T02:51:05;9.25;9.25;8.00
76049;PMS7003;64967;50.234;19.224;2023-12-20T02:53:31;9.75;9.75;8.25
76049;PMS7003;64967;50.234;19.224;2023-12-20T02:55:58;12.25;10.25;8.75
76049;PMS7003;64967;50.234;19.224;2023-12-20T02:58:24;10.50;9.75;8.25
76049;PMS7003;64967;50.234;19.224;2023-12-20T03:00:51;10.25;9.75;8.25
76049;PMS7003;64967;50.234;19.224;2023-12-20T03:03:18;12.75;10.50;8.75
76049;PMS7003;64967;50.234;19.224;2023-12-20T03:05:45;13.00;10.00;8.00
76049;PMS7003;64967;50.234;19.224;2023-12-20T03:08:12;14.25;12.00;10.00
76049;PMS7003;64967;50.234;19.224;2023-12-20T03:10:39;18.00;11.50;9.00
76049;PMS7003;64967;50.234;19.224;2023-12-20T03:13:05;13.75;9.00;7.00
76049;PMS7003;64967;50.234;19.224;2023-12-20T03:15:32;12.25;9.00;8.00
76049;PMS7003;64967;50.234;19.224;2023-12-20T03:17:59;13.00;9.75;7.00
76049;PMS7003;64967;50.234;19.224;2023-12-20T03:20:26;10.00;8.75;8.50
76049;PMS7003;64967;50.234;19.224;2023-12-20T03:22:53;9.00;9.00;7.00
76049;PMS7003;64967;50.234;19.224;2023-12-20T03:25:19;11.50;9.75;8.00
76049;PMS7003;64967;50.234;19.224;2023-12-20T03:27:46;12.00;9.75;7.00
76049;PMS7003;64967;50.234;19.224;2023-12-20T03:30:13;13.50;11.50;9.00
76049;PMS7003;64967;50.234;19.224;2023-12-20T03:32:40;11.75;9.75;8.00
76049;PMS7003;64967;50.234;19.224;2023-12-20T03:35:07;11.25;10.25;8.00
76049;PMS7003;64967;50.234;19.224;2023-12-20T03:37:34;11.00;11.00;7.25
76049;PMS7003;64967;50.234;19.224;2023-12-20T03:40:00;11.00;9.00;7.00
76049;PMS7003;64967;50.234;19.224;2023-12-20T03:42:27;13.50;10.50;7.00
76049;PMS7003;64967;50.234;19.224;2023-12-20T03:44:54;8.75;8.00;6.75
76049;PMS7003;64967;50.234;19.224;2023-12-20T03:47:20;7.25;7.00;6.50
76049;PMS7003;64967;50.234;19.224;2023-12-20T03:49:47;10.00;10.00;7.00
76049;PMS7003;64967;50.234;19.224;2023-12-20T03:52:14;7.75;7.00;6.00
76049;PMS7003;64967;50.234;19.224;2023-12-20T03:54:41;8.50;8.00;6.25
76049;PMS7003;64967;50.234;19.224;2023-12-20T03:57:10;12.00;8.75;7.00
76049;PMS7003;64967;50.234;19.224;2023-12-20T03:59:37;5.50;5.00;2.75
76049;PMS7003;64967;50.234;19.224;2023-12-20T04:02:04;9.50;8.00;6.75
76049;PMS7003;64967;50.234;19.224;2023-12-20T04:04:30;9.25;8.50;7.00
76049;PMS7003;64967;50.234;19.224;2023-12-20T04:06:57;8.00;7.25;5.75
76049;PMS7003;64967;50.234;19.224;2023-12-20T04:09:24;9.00;7.00;4.50
76049;PMS7003;64967;50.234;19.224;2023-12-20T04:11:51;11.75;9.25;6.50
76049;PMS7003;64967;50.234;19.224;2023-12-20T04:14:17;14.00;10.50;7.00
76049;PMS7003;64967;50.234;19.224;2023-12-20T04:16:44;10.25;9.50;7.75
76049;PMS7003;64967;50.234;19.224;2023-12-20T04:19:13;11.75;11.75;9.00
76049;PMS7003;64967;50.234;19.224;2023-12-20T04:21:39;14.75;12.00;8.50
76049;PMS7003;64967;50.234;19.224;2023-12-20T04:24:06;18.00;11.75;8.25
76049;PMS7003;64967;50.234;19.224;2023-12-20T04:26:33;12.75;10.75;7.00
76049;PMS7003;64967;50.234;19.224;2023-12-20T04:29:00;14.50;12.00;9.50
76049;PMS7003;64967;50.234;19.224;2023-12-20T04:31:26;15.00;14.50;11.00
76049;PMS7003;64967;50.234;19.224;2023-12-20T04:33:53;16.25;15.25;10.75
76049;PMS7003;64967;50.234;19.224;2023-12-20T04:36:20;22.50;16.25;11.75
76049;PMS7003;64967;50.234;19.224;2023-12-20T04:38:46;6.25;2.00;1.00
76049;PMS7003;64967;50.234;19.224;2023-12-20T04:41:13;19.75;15.00;11.50
76049;PMS7003;64967;50.234;19.224;2023-12-20T04:43:42;15.50;14.75;10.00
76049;PMS7003;64967;50.234;19.224;2023-12-20T04:46:09;15.00;12.50;8.25
76049;PMS7003;64967;50.234;19.224;2023-12-20T04:48:35;12.25;11.00;7.75
76049;PMS7003;64967;50.234;19.224;2023-12-20T04:51:02;14.00;12.25;10.25
76049;PMS7003;64967;50.234;19.224;2023-12-20T04:53:29;12.50;11.75;8.00
76049;PMS7003;64967;50.234;19.224;2023-12-20T04:55:56;16.00;14.00;11.25
76049;PMS7003;64967;50.234;19.224;2023-12-20T04:58:25;16.00;12.00;8.25
76049;PMS7003;64967;50.234;19.224;2023-12-20T05:00:52;12.00;10.00;6.75
76049;PMS7003;64967;50.234;19.224;2023-12-20T05:03:19;10.50;10.25;7.50
76049;PMS7003;64967;50.234;19.224;2023-12-20T05:05:45;12.50;10.00;7.00
76049;PMS7003;64967;50.234;19.224;2023-12-20T05:08:12;15.00;10.00;8.25
76049;PMS7003;64967;50.234;19.224;2023-12-20T05:10:39;14.75;10.75;8.00
76049;PMS7003;64967;50.234;19.224;2023-12-20T05:13:06;10.50;8.50;6.50
76049;PMS7003;64967;50.234;19.224;2023-12-20T05:15:34;15.25;9.00;7.00
76049;PMS7003;64967;50.234;19.224;2023-12-20T05:18:00;9.25;9.25;6.25
76049;PMS7003;64967;50.234;19.224;2023-12-20T05:20:27;15.25;10.75;7.75
76049;PMS7003;64967;50.234;19.224;2023-12-20T05:22:54;11.00;10.25;7.00
76049;PMS7003;64967;50.234;19.224;2023-12-20T05:25:20;9.75;9.75;7.75
76049;PMS7003;64967;50.234;19.224;2023-12-20T05:27:47;11.25;8.50;7.00
76049;PMS7003;64967;50.234;19.224;2023-12-20T05:30:15;11.50;9.50;7.00
76049;PMS7003;64967;50.234;19.224;2023-12-20T05:32:41;14.25;11.25;9.50
76049;PMS7003;64967;50.234;19.224;2023-12-20T05:35:08;11.50;9.50;8.50
76049;PMS7003;64967;50.234;19.224;2023-12-20T05:37:35;14.50;11.75;9.50
76049;PMS7003;64967;50.234;19.224;2023-12-20T05:40:01;20.25;15.00;11.75
76049;PMS7003;64967;50.234;19.224;2023-12-20T05:42:28;18.25;16.50;10.75
76049;PMS7003;64967;50.234;19.224;2023-12-20T05:44:55;19.25;15.25;11.00
76049;PMS7003;64967;50.234;19.224;2023-12-20T05:47:24;14.75;13.75;10.50
76049;PMS7003;64967;50.234;19.224;2023-12-20T05:49:50;17.75;16.00;14.00
76049;PMS7003;64967;50.234;19.224;2023-12-20T05:52:17;29.00;25.00;20.00
76049;PMS7003;64967;50.234;19.224;2023-12-20T05:54:44;28.75;25.00;17.75
76049;PMS7003;64967;50.234;19.224;2023-12-20T05:57:11;26.25;26.25;19.25
76049;PMS7003;64967;50.234;19.224;2023-12-20T05:59:37;37.33;33.33;21.33
76049;PMS7003;64967;50.234;19.224;2023-12-20T06:02:04;34.33;31.33;22.33
76049;PMS7003;64967;50.234;19.224;2023-12-20T06:04:31;29.67;28.00;19.00
76049;PMS7003;64967;50.234;19.224;2023-12-20T06:06:58;29.75;26.00;19.00
76049;PMS7003;64967;50.234;19.224;2023-12-20T06:09:29;29.00;26.50;19.00
76049;PMS7003;64967;50.234;19.224;2023-12-20T06:11:57;26.67;24.00;17.33
76049;PMS7003;64967;50.234;19.224;2023-12-20T06:14:24;23.50;22.00;15.75
76049;PMS7003;64967;50.234;19.224;2023-12-20T06:16:50;27.25;25.25;18.75
76049;PMS7003;64967;50.234;19.224;2023-12-20T06:19:17;16.00;13.75;10.00
76049;PMS7003;64967;50.234;19.224;2023-12-20T06:21:44;34.00;27.00;20.00
76049;PMS7003;64967;50.234;19.224;2023-12-20T06:24:11;35.00;30.00;19.67
76049;PMS7003;64967;50.234;19.224;2023-12-20T06:26:38;28.00;24.00;16.00
76049;PMS7003;64967;50.234;19.224;2023-12-20T06:29:04;29.33;25.00;16.00
76049;PMS7003;64967;50.234;19.224;2023-12-20T06:31:31;27.00;23.00;17.75
76049;PMS7003;64967;50.234;19.224;2023-12-20T06:33:59;26.75;26.00;17.50
76049;PMS7003;64967;50.234;19.224;2023-12-20T06:36:26;30.25;26.25;19.00
76049;PMS7003;64967;50.234;19.224;2023-12-20T06:38:53;26.00;23.25;17.50
76049;PMS7003;64967;50.234;19.224;2023-12-20T06:41:19;23.25;20.00;16.50
76049;PMS7003;64967;50.234;19.224;2023-12-20T06:43:46;37.75;25.50;17.50
76049;PMS7003;64967;50.234;19.224;2023-12-20T06:46:16;26.50;21.25;15.25
76049;PMS7003;64967;50.234;19.224;2023-12-20T06:48:44;33.75;25.50;18.50
76049;PMS7003;64967;50.234;19.224;2023-12-20T06:51:13;27.00;23.50;15.25
76049;PMS7003;64967;50.234;19.224;2023-12-20T06:53:41;28.25;24.50;19.00
76049;PMS7003;64967;50.234;19.224;2023-12-20T06:56:07;28.50;23.25;16.25
76049;PMS7003;64967;50.234;19.224;2023-12-20T06:58:36;27.50;24.50;18.75
76049;PMS7003;64967;50.234;19.224;2023-12-20T07:01:04;31.00;25.33;17.33
76049;PMS7003;64967;50.234;19.224;2023-12-20T07:03:31;27.00;24.33;18.00
76049;PMS7003;64967;50.234;19.224;2023-12-20T07:05:58;28.67;25.00;20.00
76049;PMS7003;64967;50.234;19.224;2023-12-20T07:08:25;35.67;29.67;19.33
76049;PMS7003;64967;50.234;19.224;2023-12-20T07:10:52;30.33;28.33;19.00
76049;PMS7003;64967;50.234;19.224;2023-12-20T07:13:18;42.67;31.00;20.67
76049;PMS7003;64967;50.234;19.224;2023-12-20T07:15:45;36.00;30.33;24.33
76049;PMS7003;64967;50.234;19.224;2023-12-20T07:18:11;33.00;27.67;20.67
76049;PMS7003;64967;50.234;19.224;2023-12-20T07:20:38;52.33;43.00;28.33
76049;PMS7003;64967;50.234;19.224;2023-12-20T07:23:05;43.67;36.00;25.00
76049;PMS7003;64967;50.234;19.224;2023-12-20T07:25:31;33.00;27.67;19.00
76049;PMS7003;64967;50.234;19.224;2023-12-20T07:27:59;35.00;26.33;17.00
76049;PMS7003;64967;50.234;19.224;2023-12-20T07:30:26;36.00;26.67;20.67
76049;PMS7003;64967;50.234;19.224;2023-12-20T07:32:52;34.33;30.33;23.67
76049;PMS7003;64967;50.234;19.224;2023-12-20T07:35:19;39.67;34.00;24.00
76049;PMS7003;64967;50.234;19.224;2023-12-20T07:37:46;31.67;26.33;19.00
76049;PMS7003;64967;50.234;19.224;2023-12-20T07:40:13;28.33;23.67;16.00
76049;PMS7003;64967;50.234;19.224;2023-12-20T07:42:39;36.33;31.67;23.67
76049;PMS7003;64967;50.234;19.224;2023-12-20T07:45:06;35.33;28.33;18.00
76049;PMS7003;64967;50.234;19.224;2023-12-20T07:47:33;31.75;23.75;16.50
76049;PMS7003;64967;50.234;19.224;2023-12-20T07:50:00;32.33;28.00;20.33
76049;PMS7003;64967;50.234;19.224;2023-12-20T07:52:27;39.67;33.00;24.67
76049;PMS7003;64967;50.234;19.224;2023-12-20T07:54:53;39.67;32.00;22.67
76049;PMS7003;64967;50.234;19.224;2023-12-20T07:57:20;45.33;35.33;24.33
76049;PMS7003;64967;50.234;19.224;2023-12-20T07:59:46;45.00;38.00;25.33
76049;PMS7003;64967;50.234;19.224;2023-12-20T08:02:13;36.33;30.33;23.00
76049;PMS7003;64967;50.234;19.224;2023-12-20T08:04:40;45.00;38.00;25.33
76049;PMS7003;64967;50.234;19.224;2023-12-20T08:07:07;42.67;37.67;25.00
76049;PMS7003;64967;50.234;19.224;2023-12-20T08:09:34;36.67;31.67;25.67
76049;PMS7003;64967;50.234;19.224;2023-12-20T08:12:03;37.67;32.33;22.67
76049;PMS7003;64967;50.234;19.224;2023-12-20T08:14:30;34.00;31.00;23.00
76049;PMS7003;64967;50.234;19.224;2023-12-20T08:16:59;35.33;30.33;22.67
76049;PMS7003;64967;50.234;19.224;2023-12-20T08:19:26;40.00;30.67;22.00
76049;PMS7003;64967;50.234;19.224;2023-12-20T08:21:52;30.00;27.33;20.00
76049;PMS7003;64967;50.234;19.224;2023-12-20T08:24:19;35.67;30.33;20.67
76049;PMS7003;64967;50.234;19.224;2023-12-20T08:26:46;42.00;34.67;22.67
76049;PMS7003;64967;50.234;19.224;2023-12-20T08:29:13;35.00;30.67;19.00
76049;PMS7003;64967;50.234;19.224;2023-12-20T08:31:40;32.33;29.33;21.00
76049;PMS7003;64967;50.234;19.224;2023-12-20T08:34:07;30.67;29.67;23.00
76049;PMS7003;64967;50.234;19.224;2023-12-20T08:36:34;33.67;30.00;19.00
76049;PMS7003;64967;50.234;19.224;2023-12-20T08:39:01;28.67;26.33;17.67
76049;PMS7003;64967;50.234;19.224;2023-12-20T08:41:29;22.33;22.33;17.00
76049;PMS7003;64967;50.234;19.224;2023-12-20T08:43:56;35.00;26.33;19.67
76049;PMS7003;64967;50.234;19.224;2023-12-20T08:46:23;37.67;30.00;22.00
76049;PMS7003;64967;50.234;19.224;2023-12-20T08:48:49;35.00;32.33;22.67
76049;PMS7003;64967;50.234;19.224;2023-12-20T08:51:16;36.33;29.33;20.67
76049;PMS7003;64967;50.234;19.224;2023-12-20T08:53:43;39.00;35.00;26.00
76049;PMS7003;64967;50.234;19.224;2023-12-20T08:56:11;38.67;31.00;23.00
76049;PMS7003;64967;50.234;19.224;2023-12-20T08:58:38;37.33;34.67;24.00
76049;PMS7003;64967;50.234;19.224;2023-12-20T09:01:05;41.67;34.33;25.33
76049;PMS7003;64967;50.234;19.224;2023-12-20T09:03:32;31.67;27.00;19.00
76049;PMS7003;64967;50.234;19.224;2023-12-20T09:05:58;38.00;31.67;19.67
76049;PMS7003;64967;50.234;19.224;2023-12-20T09:08:25;47.67;39.00;24.33
76049;PMS7003;64967;50.234;19.224;2023-12-20T09:10:51;46.00;36.00;23.67
76049;PMS7003;64967;50.234;19.224;2023-12-20T09:13:18;34.00;27.67;23.00
76049;PMS7003;64967;50.234;19.224;2023-12-20T09:15:45;34.33;30.33;20.33
76049;PMS7003;64967;50.234;19.224;2023-12-20T09:18:11;33.67;25.67;17.00
76049;PMS7003;64967;50.234;19.224;2023-12-20T09:20:38;34.67;29.33;20.33
76049;PMS7003;64967;50.234;19.224;2023-12-20T09:23:09;30.67;26.00;19.00
76049;PMS7003;64967;50.234;19.224;2023-12-20T09:25:35;29.67;28.00;19.67
76049;PMS7003;64967;50.234;19.224;2023-12-20T09:28:04;32.33;31.33;20.00
76049;PMS7003;64967;50.234;19.224;2023-12-20T09:30:31;35.00;31.33;20.33
76049;PMS7003;64967;50.234;19.224;2023-12-20T09:32:58;35.00;31.00;19.67
76049;PMS7003;64967;50.234;19.224;2023-12-20T09:35:25;34.33;31.33;23.00
76049;PMS7003;64967;50.234;19.224;2023-12-20T09:37:53;36.00;33.00;23.00
76049;PMS7003;64967;50.234;19.224;2023-12-20T09:40:19;51.00;35.67;24.33
76049;PMS7003;64967;50.234;19.224;2023-12-20T09:42:48;31.00;30.00;22.33
76049;PMS7003;64967;50.234;19.224;2023-12-20T09:45:22;32.67;30.67;22.00
76049;PMS7003;64967;50.234;19.224;2023-12-20T09:47:49;33.33;30.67;22.00
76049;PMS7003;64967;50.234;19.224;2023-12-20T09:50:19;34.67;30.67;19.67
76049;PMS7003;64967;50.234;19.224;2023-12-20T09:52:51;31.33;27.00;16.00
76049;PMS7003;64967;50.234;19.224;2023-12-20T09:55:19;28.25;24.50;18.75
76049;PMS7003;64967;50.234;19.224;2023-12-20T09:57:47;21.33;16.67;7.67
76049;PMS7003;64967;50.234;19.224;2023-12-20T10:00:15;49.33;35.00;23.00
76049;PMS7003;64967;50.234;19.224;2023-12-20T10:02:50;41.33;37.33;23.00
76049;PMS7003;64967;50.234;19.224;2023-12-20T10:05:29;38.33;31.00;19.67
76049;PMS7003;64967;50.234;19.224;2023-12-20T10:07:57;46.67;41.67;27.00
76049;PMS7003;64967;50.234;19.224;2023-12-20T10:10:26;34.00;32.33;23.00
76049;PMS7003;64967;50.234;19.224;2023-12-20T10:13:08;36.67;32.00;22.67
76049;PMS7003;64967;50.234;19.224;2023-12-20T10:15:36;36.33;32.67;23.00
76049;PMS7003;64967;50.234;19.224;2023-12-20T10:18:04;39.33;33.00;23.00
76049;PMS7003;64967;50.234;19.224;2023-12-20T10:20:31;38.33;28.00;18.33
76049;PMS7003;64967;50.234;19.224;2023-12-20T10:22:59;37.00;33.00;23.00
76049;PMS7003;64967;50.234;19.224;2023-12-20T10:25:27;44.33;32.00;23.67
76049;PMS7003;64967;50.234;19.224;2023-12-20T10:28:16;35.67;31.67;21.33
76049;PMS7003;64967;50.234;19.224;2023-12-20T10:30:49;40.25;33.00;22.50
76049;PMS7003;64967;50.234;19.224;2023-12-20T10:33:23;44.00;38.00;26.33
76049;PMS7003;64967;50.234;19.224;2023-12-20T10:35:55;48.33;40.00;26.00
76049;PMS7003;64967;50.234;19.224;2023-12-20T10:38:22;41.67;36.33;24.67
76049;PMS7003;64967;50.234;19.224;2023-12-20T10:40:50;35.67;32.67;21.00
76049;PMS7003;64967;50.234;19.224;2023-12-20T10:43:23;40.67;34.00;23.33
76049;PMS7003;64967;50.234;19.224;2023-12-20T10:45:52;46.00;38.33;25.00
76049;PMS7003;64967;50.234;19.224;2023-12-20T10:48:19;42.00;35.00;23.67
76049;PMS7003;64967;50.234;19.224;2023-12-20T10:50:49;32.75;25.00;19.50
76049;PMS7003;64967;50.234;19.224;2023-12-20T10:53:15;38.33;37.00;25.00
76049;PMS7003;64967;50.234;19.224;2023-12-20T10:55:42;26.67;21.67;15.00
76049;PMS7003;64967;50.234;19.224;2023-12-20T10:58:10;41.33;31.67;21.67
76049;PMS7003;64967;50.234;19.224;2023-12-20T11:00:40;32.67;31.33;22.00
76049;PMS7003;64967;50.234;19.224;2023-12-20T11:03:08;35.67;30.67;22.00
76049;PMS7003;64967;50.234;19.224;2023-12-20T11:05:44;41.00;36.33;23.00
76049;PMS7003;64967;50.234;19.224;2023-12-20T11:08:39;36.67;32.67;23.00
76049;PMS7003;64967;50.234;19.224;2023-12-20T11:13:55;29.00;27.00;19.67
76049;PMS7003;64967;50.234;19.224;2023-12-20T11:16:26;33.67;29.67;22.00
76049;PMS7003;64967;50.234;19.224;2023-12-20T11:19:06;36.67;30.00;21.33
76049;PMS7003;64967;50.234;19.224;2023-12-20T11:21:33;39.33;31.00;20.00
76049;PMS7003;64967;50.234;19.224;2023-12-20T11:24:00;32.00;28.00;17.33
76049;PMS7003;64967;50.234;19.224;2023-12-20T11:26:29;29.50;27.50;19.25
76049;PMS7003;64967;50.234;19.224;2023-12-20T11:29:28;36.33;28.67;19.00
76049;PMS7003;64967;50.234;19.224;2023-12-20T11:34:53;30.50;25.50;18.50
76049;PMS7003;64967;50.234;19.224;2023-12-20T11:37:22;26.00;21.25;18.25
76049;PMS7003;64967;50.234;19.224;2023-12-20T11:39:56;33.50;30.25;20.75
76049;PMS7003;64967;50.234;19.224;2023-12-20T11:42:27;39.00;30.67;18.67
76049;PMS7003;64967;50.234;19.224;2023-12-20T11:44:54;32.00;25.33;15.67
76049;PMS7003;64967;50.234;19.224;2023-12-20T11:47:22;31.00;27.00;19.75
76049;PMS7003;64967;50.234;19.224;2023-12-20T11:49:49;35.00;28.50;18.50
76049;PMS7003;64967;50.234;19.224;2023-12-20T11:52:17;30.67;26.33;16.67
76049;PMS7003;64967;50.234;19.224;2023-12-20T11:54:44;41.75;36.50;24.00
76049;PMS7003;64967;50.234;19.224;2023-12-20T11:57:10;38.33;31.33;23.33
76049;PMS7003;64967;50.234;19.224;2023-12-20T11:59:37;35.75;29.25;19.50
76049;PMS7003;64967;50.234;19.224;2023-12-20T12:02:04;36.75;28.25;21.00
76049;PMS7003;64967;50.234;19.224;2023-12-20T12:04:30;42.00;34.50;22.25
76049;PMS7003;64967;50.234;19.224;2023-12-20T12:06:57;33.00;31.25;21.00
76049;PMS7003;64967;50.234;19.224;2023-12-20T12:09:24;31.50;25.00;16.25
76049;PMS7003;64967;50.234;19.224;2023-12-20T12:11:50;28.75;25.25;16.75
76049;PMS7003;64967;50.234;19.224;2023-12-20T12:14:18;24.50;20.25;16.00
76049;PMS7003;64967;50.234;19.224;2023-12-20T12:16:46;34.50;25.25;19.00
76049;PMS7003;64967;50.234;19.224;2023-12-20T12:19:20;35.00;25.75;19.50
76049;PMS7003;64967;50.234;19.224;2023-12-20T12:21:51;26.25;23.75;17.75
76049;PMS7003;64967;50.234;19.224;2023-12-20T12:24:31;28.00;21.75;16.00
76049;PMS7003;64967;50.234;19.224;2023-12-20T12:26:57;25.00;23.00;17.00
76049;PMS7003;64967;50.234;19.224;2023-12-20T12:29:24;36.00;28.00;18.50
76049;PMS7003;64967;50.234;19.224;2023-12-20T12:31:51;28.00;24.25;17.25
76049;PMS7003;64967;50.234;19.224;2023-12-20T12:34:18;45.33;31.33;21.33
76049;PMS7003;64967;50.234;19.224;2023-12-20T12:36:45;35.50;29.00;18.75
76049;PMS7003;64967;50.234;19.224;2023-12-20T12:39:13;29.75;24.00;17.50
76049;PMS7003;64967;50.234;19.224;2023-12-20T12:41:43;33.50;28.75;20.50
76049;PMS7003;64967;50.234;19.224;2023-12-20T12:44:10;29.75;24.00;18.75
76049;PMS7003;64967;50.234;19.224;2023-12-20T12:46:44;26.25;22.00;16.50
76049;PMS7003;64967;50.234;19.224;2023-12-20T12:49:12;25.00;20.75;15.75
76049;PMS7003;64967;50.234;19.224;2023-12-20T12:51:39;23.75;20.25;15.00
76049;PMS7003;64967;50.234;19.224;2023-12-20T12:54:05;32.50;24.50;16.50
76049;PMS7003;64967;50.234;19.224;2023-12-20T12:56:32;19.50;16.50;12.50
76049;PMS7003;64967;50.234;19.224;2023-12-20T12:58:59;31.50;24.50;16.00
76049;PMS7003;64967;50.234;19.224;2023-12-20T13:01:26;28.75;20.50;15.25
76049;PMS7003;64967;50.234;19.224;2023-12-20T13:03:53;34.00;30.00;19.75
76049;PMS7003;64967;50.234;19.224;2023-12-20T13:06:20;31.75;24.75;19.25
76049;PMS7003;64967;50.234;19.224;2023-12-20T13:08:47;16.75;16.00;10.50
76049;PMS7003;64967;50.234;19.224;2023-12-20T13:11:14;30.25;26.50;18.00
76049;PMS7003;64967;50.234;19.224;2023-12-20T13:13:40;28.00;26.75;16.75
76049;PMS7003;64967;50.234;19.224;2023-12-20T13:16:07;33.00;25.00;17.75
76049;PMS7003;64967;50.234;19.224;2023-12-20T13:18:34;30.25;28.00;19.25
76049;PMS7003;64967;50.234;19.224;2023-12-20T13:21:00;42.00;30.00;20.00
76049;PMS7003;64967;50.234;19.224;2023-12-20T13:23:27;38.67;31.67;22.67
76049;PMS7003;64967;50.234;19.224;2023-12-20T13:25:54;36.25;31.25;22.25
76049;PMS7003;64967;50.234;19.224;2023-12-20T13:28:20;40.25;33.75;22.50
76049;PMS7003;64967;50.234;19.224;2023-12-20T13:30:47;31.25;29.75;19.25
76049;PMS7003;64967;50.234;19.224;2023-12-20T13:33:14;37.50;31.25;20.50
76049;PMS7003;64967;50.234;19.224;2023-12-20T13:35:41;39.67;32.33;23.00
76049;PMS7003;64967;50.234;19.224;2023-12-20T13:38:07;34.50;29.75;20.75
76049;PMS7003;64967;50.234;19.224;2023-12-20T13:48:07;27.25;24.00;16.00
76049;PMS7003;64967;50.234;19.224;2023-12-20T13:50:34;34.75;29.00;20.25
76049;PMS7003;64967;50.234;19.224;2023-12-20T13:53:00;34.00;28.50;18.50
76049;PMS7003;64967;50.234;19.224;2023-12-20T13:55:27;39.25;32.75;21.00
76049;PMS7003;64967;50.234;19.224;2023-12-20T13:57:54;36.25;28.50;17.50
76049;PMS7003;64967;50.234;19.224;2023-12-20T14:00:22;33.00;25.00;16.50